Terminal Aerodrome Forecast
Issued by NWS Upton, NY

Current Version | Previous Version | Text Only | Print | Product List | Glossary On
Versions: 1 2 3 4 5 6 7 8 9 10 11 12 13 14 15 16 17 18 19 20 21 22 23 24 25 26 27 28 29 30 31 32 33 34
541 FTUS41 KOKX 201726 TAFISP TAF KISP 201726Z 2018/2118 28017G25KT P6SM SCT050 FM202200 27012G19KT P6SM FEW050 FM210100 25008KT P6SM SKC FM210800 22007KT P6SM SKC FM211400 22011G18KT P6SM SKC=

USA.gov is the U.S. government's official web portal to all federal, state and local government web resources and services.